Time;durP1;ratioP1;P1;durP2;ratioP2;P2;SDS_P1;SDS_P2;PMS_P1;PMS_P2;Temp;Humidity;BMP_temperature;BMP_pressure;BME280_temperature;BME280_humidity;BME280_pressure;Samples;Min_cycle;Max_cycle;Signal;HPM_P1;HPM_P2
2023/06/17 00:00:59;;;;;;;18.00;12.17;;;;;;;-141.97;77.15;47674.78;5013862;28;20249;-81
2023/06/17 00:03:24;;;;;;;17.13;12.30;;;;;;;-141.97;77.51;47672.84;5013617;28;20246;-81
2023/06/17 00:05:51;;;;;;;16.73;11.53;;;;;;;-141.97;77.09;47655.53;5013303;28;20182;-80
2023/06/17 00:08:16;;;;;;;13.77;11.00;;;;;;;-141.97;76.46;47665.16;5013824;28;20218;-79
2023/06/17 00:10:42;;;;;;;13.90;10.77;;;;;;;-141.97;76.00;47595.97;5013260;28;20173;-79
2023/06/17 00:13:08;;;;;;;14.87;10.37;;;;;;;-141.97;75.75;47659.38;5013684;28;20203;-81
2023/06/17 00:15:36;;;;;;;14.07;10.63;;;;;;;-141.97;75.88;47659.38;5013470;28;20642;-80
2023/06/17 00:18:03;;;;;;;14.80;11.03;;;;;;;-141.97;76.02;47580.59;5013381;28;20158;-80
2023/06/17 00:20:29;;;;;;;14.90;11.63;;;;;;;-141.97;75.62;47824.69;5013229;28;20171;-80
2023/06/17 00:22:54;;;;;;;14.90;11.67;;;;;;;-141.97;76.36;47630.56;5013883;28;20573;-80
2023/06/17 00:25:20;;;;;;;17.30;12.30;;;;;;;-141.97;76.34;47638.25;5014173;28;20159;-80
2023/06/17 00:27:45;;;;;;;17.30;12.40;;;;;;;-141.97;76.60;47638.25;5013807;28;20183;-80
2023/06/17 00:30:11;;;;;;;17.10;12.43;;;;;;;-141.97;75.84;47640.16;5014410;28;20175;-81
2023/06/17 00:32:37;;;;;;;17.23;13.13;;;;;;;-141.97;75.87;47609.41;5014034;28;20225;-80
2023/06/17 00:35:04;;;;;;;15.50;13.47;;;;;;;-141.97;76.17;47595.97;5013845;28;20620;-80
2023/06/17 00:37:29;;;;;;;17.73;13.30;;;;;;;-141.97;76.56;47640.16;5013318;28;20158;-81
2023/06/17 00:39:55;;;;;;;16.13;13.57;;;;;;;-141.97;76.49;47611.34;5013788;28;20731;-80
2023/06/17 00:42:20;;;;;;;16.63;13.20;;;;;;;-141.97;75.84;47665.16;5012494;28;20166;-80
2023/06/17 00:44:46;;;;;;;17.23;13.03;;;;;;;-141.97;75.85;47509.47;5013812;28;20557;-80
2023/06/17 00:47:13;;;;;;;16.60;12.33;;;;;;;-141.97;75.70;47638.25;5013621;28;20238;-81
2023/06/17 00:49:44;;;;;;;16.87;12.40;;;;;;;-141.97;75.61;47644.00;5013179;28;20229;-82
2023/06/17 00:52:12;;;;;;;16.73;12.40;;;;;;;-141.97;76.14;47647.84;5013321;28;20175;-81
2023/06/17 00:54:40;;;;;;;17.10;12.53;;;;;;;-141.97;76.07;47636.31;5013658;28;20159;-81
2023/06/17 00:57:13;;;;;;;16.50;12.90;;;;;;;-141.97;75.38;47653.63;5013497;28;20167;-81
2023/06/17 00:59:40;;;;;;;17.63;12.50;;;;;;;-141.97;75.36;47653.63;5013653;28;20555;-81
2023/06/17 01:02:09;;;;;;;16.80;13.17;;;;;;;-141.97;75.88;47655.53;5000534;28;20183;-82
2023/06/17 01:04:37;;;;;;;18.10;14.23;;;;;;;-141.97;76.20;47578.66;4993772;28;20207;-82
2023/06/17 01:07:17;;;;;;;19.70;15.33;;;;;;;-141.97;76.25;47626.72;4994445;28;20179;-81
2023/06/17 01:09:50;;;;;;;20.33;15.70;;;;;;;-141.97;76.14;47663.22;4994090;28;20213;-82
2023/06/17 01:12:16;;;;;;;23.90;16.90;;;;;;;-141.97;76.71;47649.78;5002065;28;20187;-80
2023/06/17 01:14:42;;;;;;;25.50;17.07;;;;;;;-141.97;77.08;47676.69;5012997;28;20640;-81
2023/06/17 01:17:12;;;;;;;25.90;16.47;;;;;;;-141.97;77.38;47592.13;5014217;28;20612;-81
2023/06/17 01:19:39;;;;;;;24.27;16.23;;;;;;;-141.97;77.82;47661.31;5014128;28;20177;-81
2023/06/17 01:22:08;;;;;;;19.63;15.43;;;;;;;-141.97;77.31;47588.28;5012084;28;20170;-80
2023/06/17 01:24:34;;;;;;;19.37;14.37;;;;;;;-141.97;77.32;47657.47;5012032;28;20606;-80
2023/06/17 01:27:02;;;;;;;19.83;14.70;;;;;;;-141.97;77.71;47659.38;5013092;28;20225;-80
2023/06/17 01:29:32;;;;;;;16.10;13.20;;;;;;;-141.97;76.80;47628.63;5013030;28;20224;-81
2023/06/17 01:31:58;;;;;;;17.27;13.03;;;;;;;-141.97;76.95;47651.69;5012501;28;20634;-80
2023/06/17 01:34:43;;;;;;;19.20;12.83;;;;;;;-141.97;76.66;47674.78;5012072;28;20552;-79
2023/06/17 01:37:12;;;;;;;17.87;12.20;;;;;;;-141.97;75.96;47630.56;5012990;28;20170;-80
2023/06/17 01:39:42;;;;;;;15.23;11.43;;;;;;;-141.97;75.35;47645.94;5013352;28;20646;-80
2023/06/17 01:42:14;;;;;;;16.50;11.13;;;;;;;-141.97;74.66;47634.41;5012851;28;20158;-80
2023/06/17 01:44:41;;;;;;;15.60;11.33;;;;;;;-141.97;74.92;47615.19;5012565;28;20264;-81
2023/06/17 01:47:09;;;;;;;15.73;11.47;;;;;;;-141.97;74.44;47611.34;5012174;28;20174;-79
2023/06/17 01:49:36;;;;;;;18.00;10.90;;;;;;;-141.97;74.44;47672.84;5012915;28;20242;-80
2023/06/17 01:52:02;;;;;;;13.07;10.70;;;;;;;-141.97;74.50;47695.91;5013321;28;20162;-80
2023/06/17 01:54:27;;;;;;;14.07;10.37;;;;;;;-141.97;74.03;47640.16;5013424;28;20241;-81
2023/06/17 01:56:53;;;;;;;14.57;10.70;;;;;;;-141.97;74.47;47657.47;5012652;28;20614;-81
2023/06/17 01:59:19;;;;;;;13.87;10.83;;;;;;;-141.97;74.51;47576.75;5012252;28;20189;-80
2023/06/17 02:01:44;;;;;;;16.00;11.00;;;;;;;-141.97;74.59;47649.78;5011807;28;20194;-80
2023/06/17 02:04:09;;;;;;;15.47;11.10;;;;;;;-141.97;74.60;47692.06;5011754;28;20577;-80
2023/06/17 02:06:35;;;;;;;15.30;11.23;;;;;;;-141.97;75.10;47657.47;5013417;28;20361;-80
2023/06/17 02:09:00;;;;;;;16.37;11.13;;;;;;;-141.97;75.64;47619.03;5013330;28;20225;-80
2023/06/17 02:11:27;;;;;;;16.73;11.27;;;;;;;-141.97;75.85;47670.91;5011518;28;20178;-81
2023/06/17 02:13:52;;;;;;;14.37;10.70;;;;;;;-141.97;75.43;47559.44;5013017;28;20638;-81
2023/06/17 02:16:17;;;;;;;16.80;12.13;;;;;;;-141.97;75.82;47761.25;5012535;28;20245;-80
2023/06/17 02:18:43;;;;;;;17.80;12.40;;;;;;;-141.97;75.71;47638.25;5012533;28;20162;-80
2023/06/17 02:21:09;;;;;;;17.87;12.50;;;;;;;-141.97;75.69;47657.47;5012910;28;20234;-81
2023/06/17 02:23:35;;;;;;;15.40;12.43;;;;;;;-141.97;75.59;47674.78;5011977;28;20282;-79
2023/06/17 02:26:01;;;;;;;17.87;13.27;;;;;;;-141.97;75.79;47672.84;5012267;28;20610;-79
2023/06/17 02:28:26;;;;;;;18.77;13.23;;;;;;;-141.97;76.17;47657.47;5012060;28;20199;-79
2023/06/17 02:30:52;;;;;;;15.60;12.70;;;;;;;-141.97;76.48;47678.63;5011607;28;20174;-81
2023/06/17 02:33:18;;;;;;;14.87;12.80;;;;;;;-141.97;76.56;47595.97;5011954;28;20174;-79
2023/06/17 02:35:44;;;;;;;17.37;13.50;;;;;;;-141.97;76.86;47638.25;5011788;28;20166;-79
2023/06/17 02:38:10;;;;;;;18.10;13.60;;;;;;;-141.97;76.84;47676.69;5011937;28;20198;-79
2023/06/17 02:40:35;;;;;;;19.67;14.07;;;;;;;-141.97;77.31;47742.03;5012535;28;20662;-80
2023/06/17 02:43:01;;;;;;;18.47;14.17;;;;;;;-141.97;77.41;47615.19;5012025;28;20198;-79
2023/06/17 02:45:26;;;;;;;17.47;13.13;;;;;;;-141.97;77.70;47628.63;5014873;28;20177;-80
2023/06/17 02:47:52;;;;;;;17.53;13.50;;;;;;;-141.97;77.92;47680.53;5016057;28;20174;-79
2023/06/17 02:50:23;;;;;;;19.00;13.73;;;;;;;-141.97;77.85;47665.16;5015880;28;20252;-78
2023/06/17 02:52:55;;;;;;;20.03;14.00;;;;;;;-141.97;78.16;47686.31;5015821;28;20159;-79
2023/06/17 02:55:21;;;;;;;20.33;14.70;;;;;;;-141.97;78.19;47669.00;5016090;28;20619;-77
2023/06/17 02:57:46;;;;;;;20.93;14.73;;;;;;;-141.97;78.94;47647.84;5015251;28;20167;-80
2023/06/17 03:00:12;;;;;;;18.37;14.77;;;;;;;-141.97;79.04;47711.28;5015858;28;20297;-79
2023/06/17 03:02:37;;;;;;;18.23;14.70;;;;;;;-141.97;79.10;47653.63;5015730;28;20162;-80
2023/06/17 03:05:06;;;;;;;21.60;14.93;;;;;;;-141.97;79.63;47665.16;5015700;28;20206;-79
2023/06/17 03:07:35;;;;;;;19.57;14.20;;;;;;;-141.97;79.83;47669.00;5015273;28;20179;-79
2023/06/17 03:10:02;;;;;;;18.20;13.90;;;;;;;-141.97;80.16;47882.38;5014964;28;20326;-80
2023/06/17 03:12:28;;;;;;;21.83;14.30;;;;;;;-141.97;80.24;47684.38;5014480;28;20163;-80
2023/06/17 03:14:53;;;;;;;20.33;14.87;;;;;;;-141.97;80.18;47655.53;5013622;28;20619;-79
2023/06/17 03:17:18;;;;;;;21.33;13.97;;;;;;;-141.97;80.15;47832.38;5014340;28;20166;-80
2023/06/17 03:19:44;;;;;;;18.53;14.23;;;;;;;-141.97;79.92;47684.38;5014688;28;20283;-80
2023/06/17 03:22:09;;;;;;;20.67;14.70;;;;;;;-141.97;79.95;47647.84;5014875;28;20214;-79
2023/06/17 03:24:35;;;;;;;18.73;14.23;;;;;;;-141.97;79.93;47645.94;5014735;28;20218;-79
2023/06/17 03:27:01;;;;;;;20.73;15.43;;;;;;;-141.97;79.99;47818.94;5014632;28;20257;-80
2023/06/17 03:29:26;;;;;;;19.40;15.07;;;;;;;-141.97;80.01;47615.19;5014773;28;20183;-80
2023/06/17 03:31:56;;;;;;;19.93;14.53;;;;;;;-141.97;80.10;47695.91;5014499;28;20201;-79
2023/06/17 03:34:22;;;;;;;18.37;14.47;;;;;;;-141.97;79.40;47684.38;5014730;28;20589;-80
2023/06/17 03:36:48;;;;;;;19.07;15.60;;;;;;;-141.97;79.30;47649.78;5013320;28;20170;-80
2023/06/17 03:39:13;;;;;;;19.80;15.50;;;;;;;-141.97;79.58;47676.69;4993874;28;20186;-79
2023/06/17 03:41:39;;;;;;;19.77;14.57;;;;;;;-141.97;79.63;47720.91;4994969;28;20159;-80
2023/06/17 03:44:04;;;;;;;22.37;15.80;;;;;;;-141.97;79.47;47670.91;4994411;28;20226;-80
2023/06/17 03:46:29;;;;;;;20.03;15.67;;;;;;;-141.97;79.12;47615.19;4994551;28;20528;-80
2023/06/17 03:48:55;;;;;;;21.60;15.80;;;;;;;-141.97;78.34;47644.00;5025973;28;20175;-78
2023/06/17 03:51:20;;;;;;;20.37;15.60;;;;;;;-141.97;78.17;47692.06;4995738;28;20650;-79
2023/06/17 03:53:46;;;;;;;23.57;15.70;;;;;;;-141.97;78.05;47659.38;5014663;28;20187;-80
2023/06/17 03:56:11;;;;;;;25.53;15.80;;;;;;;-141.97;77.49;47642.09;5014447;28;20187;-81
2023/06/17 03:58:37;;;;;;;23.17;15.80;;;;;;;-141.97;76.75;47670.91;5014878;28;20166;-81
2023/06/17 04:01:02;;;;;;;20.60;15.57;;;;;;;-141.97;76.88;47642.09;5014684;28;20170;-80
2023/06/17 04:03:27;;;;;;;20.77;15.00;;;;;;;-141.97;77.51;47626.72;5015134;28;20268;-81
2023/06/17 04:05:53;;;;;;;23.57;14.50;;;;;;;-141.97;77.32;47649.78;5015128;28;20297;-79
2023/06/17 04:08:19;;;;;;;19.83;14.17;;;;;;;-141.97;77.72;47695.91;5013446;28;20234;-80
2023/06/17 04:10:47;;;;;;;20.90;14.57;;;;;;;-141.97;78.04;47749.72;5013926;28;20751;-79
2023/06/17 04:13:14;;;;;;;23.83;15.10;;;;;;;-141.97;78.95;47743.97;5014134;28;20605;-79
2023/06/17 04:15:39;;;;;;;25.27;15.37;;;;;;;-141.97;79.80;47638.25;5013315;28;20182;-79
2023/06/17 04:18:04;;;;;;;24.47;15.97;;;;;;;-141.97;80.23;47659.38;5012794;28;20214;-80
2023/06/17 04:20:32;;;;;;;25.70;16.93;;;;;;;-141.97;79.81;47855.44;5013614;28;20173;-80
2023/06/17 04:22:57;;;;;;;27.63;17.47;;;;;;;-141.97;79.78;47694.00;5013262;28;20250;-80
2023/06/17 04:25:23;;;;;;;22.30;15.83;;;;;;;-141.97;80.34;47659.38;5013667;28;20250;-80
2023/06/17 04:27:53;;;;;;;24.53;17.03;;;;;;;-141.97;80.50;47611.34;5013499;28;20171;-79
2023/06/17 04:30:18;;;;;;;26.93;17.13;;;;;;;-141.97;79.81;47619.03;5013237;28;20159;-79
2023/06/17 04:32:44;;;;;;;30.00;17.87;;;;;;;-141.97;79.18;47680.53;5013322;28;20177;-79
2023/06/17 04:35:10;;;;;;;24.13;16.60;;;;;;;-141.97;79.10;47638.25;5013132;28;20158;-79
2023/06/17 04:37:37;;;;;;;29.40;17.20;;;;;;;-141.97;79.11;47657.47;5013239;28;20174;-80
2023/06/17 04:40:10;;;;;;;30.07;17.10;;;;;;;-141.97;79.17;47667.06;5013378;28;20167;-79
2023/06/17 04:42:36;;;;;;;30.77;20.60;;;;;;;-141.97;79.12;47667.06;5012139;28;20225;-80
2023/06/17 04:45:02;;;;;;;25.50;17.63;;;;;;;-141.97;79.19;47692.06;5012765;28;20671;-79
2023/06/17 04:47:28;;;;;;;25.57;17.80;;;;;;;-141.97;78.84;47647.84;5011106;28;20194;-79
2023/06/17 04:49:54;;;;;;;27.77;18.03;;;;;;;-141.97;78.77;47811.25;5011218;28;20167;-80
2023/06/17 04:52:20;;;;;;;28.27;18.33;;;;;;;-141.97;78.19;47682.47;5012641;28;20533;-81
2023/06/17 04:54:46;;;;;;;31.30;18.10;;;;;;;-141.97;78.46;47692.06;5013091;28;20162;-80
2023/06/17 04:57:12;;;;;;;26.93;17.97;;;;;;;-141.97;79.09;47663.22;5012694;28;20167;-80
2023/06/17 04:59:37;;;;;;;27.27;17.77;;;;;;;-141.97;79.54;47680.53;5013958;28;20163;-81
2023/06/17 05:02:03;;;;;;;23.77;16.73;;;;;;;-141.97;79.90;47653.63;5013136;28;20258;-79
2023/06/17 05:04:29;;;;;;;26.97;17.63;;;;;;;-141.97;80.85;47665.16;5013863;28;20198;-81
2023/06/17 05:06:55;;;;;;;27.73;18.73;;;;;;;-141.97;81.83;47680.53;5012980;28;20159;-79
2023/06/17 05:09:22;;;;;;;27.03;19.10;;;;;;;-141.97;84.19;47672.84;5013291;28;20245;-80
2023/06/17 05:11:48;;;;;;;26.53;18.23;;;;;;;-141.97;85.15;47690.16;5014003;28;20592;-80
2023/06/17 05:14:13;;;;;;;26.17;19.17;;;;;;;-141.97;84.81;47688.22;5013899;28;20252;-79
2023/06/17 05:16:39;;;;;;;25.90;18.13;;;;;;;-141.97;83.32;47695.91;5013125;28;20171;-81
2023/06/17 05:19:04;;;;;;;29.83;20.10;;;;;;;-141.97;84.06;47672.84;5014320;28;20210;-80
2023/06/17 05:21:30;;;;;;;26.53;19.20;;;;;;;-141.97;83.97;47661.31;5014037;28;20249;-80
2023/06/17 05:23:55;;;;;;;29.37;20.63;;;;;;;-141.97;84.12;47657.47;5013494;28;20651;-81
2023/06/17 05:26:21;;;;;;;29.47;20.13;;;;;;;-141.97;84.39;47669.00;5013309;28;20166;-80
2023/06/17 05:28:46;;;;;;;29.57;19.83;;;;;;;-141.97;84.60;47703.59;5013473;28;20159;-80
2023/06/17 05:31:11;;;;;;;27.10;19.73;;;;;;;-141.97;84.64;47830.47;5013821;28;20248;-78
2023/06/17 05:33:37;;;;;;;32.03;20.57;;;;;;;-141.97;84.70;47563.28;5012711;28;20177;-80
2023/06/17 05:36:03;;;;;;;26.53;19.10;;;;;;;-141.97;84.70;47655.53;4993975;28;20172;-79
2023/06/17 05:38:29;;;;;;;26.33;20.17;;;;;;;-141.97;84.92;47657.47;5005338;28;20175;-79
2023/06/17 05:40:55;;;;;;;24.63;19.60;;;;;;;-141.97;84.30;47717.06;5012318;28;20653;-79
2023/06/17 05:43:20;;;;;;;26.83;19.30;;;;;;;-141.97;83.58;47613.25;5013303;28;20257;-81
2023/06/17 05:45:46;;;;;;;26.73;19.87;;;;;;;-141.97;83.36;47676.69;5013663;28;20181;-80
2023/06/17 05:48:12;;;;;;;28.00;19.93;;;;;;;-141.97;83.36;47645.94;5013468;28;20636;-81
2023/06/17 05:50:38;;;;;;;27.43;20.17;;;;;;;-141.97;81.95;47690.16;5013389;28;20536;-81
2023/06/17 05:53:04;;;;;;;27.13;20.20;;;;;;;-141.97;82.50;47703.59;5013838;28;20179;-81
2023/06/17 05:55:29;;;;;;;27.07;20.00;;;;;;;-141.97;82.12;47669.00;5013376;28;20170;-80
2023/06/17 05:57:55;;;;;;;27.47;19.80;;;;;;;-141.97;82.95;47882.38;5013120;28;20702;-79
2023/06/17 06:00:22;;;;;;;27.27;20.53;;;;;;;-141.97;83.42;47655.53;5012899;28;20190;-81
2023/06/17 06:02:47;;;;;;;29.47;20.57;;;;;;;-141.97;83.70;47622.88;5012490;28;20209;-81
2023/06/17 06:05:13;;;;;;;27.97;20.83;;;;;;;-141.97;83.46;47692.06;5013093;28;20182;-80
2023/06/17 06:07:40;;;;;;;28.90;21.67;;;;;;;-141.97;83.94;47684.38;5012075;28;20178;-81
2023/06/17 06:10:07;;;;;;;28.27;20.87;;;;;;;-141.97;83.87;47682.47;5012542;28;20253;-80
2023/06/17 06:12:32;;;;;;;28.23;21.50;;;;;;;-141.97;84.91;47661.31;5012661;28;20178;-80
2023/06/17 06:14:58;;;;;;;27.90;22.27;;;;;;;-141.97;85.11;47686.31;5012446;28;20159;-80
2023/06/17 06:17:24;;;;;;;31.33;21.27;;;;;;;-141.97;84.78;47642.09;5012534;28;20701;-79
2023/06/17 06:19:53;;;;;;;35.63;23.53;;;;;;;-141.97;84.24;47638.25;5015959;28;20170;-80
2023/06/17 06:22:18;;;;;;;33.33;22.80;;;;;;;-141.97;82.45;47640.16;5016151;28;20170;-80
2023/06/17 06:24:44;;;;;;;28.43;22.23;;;;;;;-141.97;81.50;47653.63;5016205;28;20676;-81
2023/06/17 06:27:09;;;;;;;31.27;21.63;;;;;;;-141.97;80.88;47686.31;5016952;28;20264;-81
2023/06/17 06:29:35;;;;;;;27.87;20.90;;;;;;;-141.97;78.58;47730.50;5016343;28;20163;-81
2023/06/17 06:32:01;;;;;;;26.43;20.97;;;;;;;-141.97;77.55;47613.25;5016235;28;20170;-81
2023/06/17 06:34:27;;;;;;;28.70;21.27;;;;;;;-141.97;76.08;47530.59;5016185;28;20169;-78
2023/06/17 06:36:55;;;;;;;25.00;19.73;;;;;;;-141.97;75.34;47861.22;5015991;28;20230;-80
2023/06/17 06:39:20;;;;;;;25.50;19.63;;;;;;;-141.97;73.19;47655.53;5016298;28;20245;-81
2023/06/17 06:41:45;;;;;;;28.13;20.53;;;;;;;-141.97;73.18;47842.00;5016406;28;20197;-81
2023/06/17 06:44:11;;;;;;;25.80;20.57;;;;;;;-141.97;73.15;47667.06;5015529;28;20198;-81
2023/06/17 06:46:37;;;;;;;26.13;20.63;;;;;;;-141.97;74.63;47505.63;5016338;28;20198;-80
2023/06/17 06:49:02;;;;;;;27.13;20.53;;;;;;;-141.97;75.47;47772.78;5016191;28;20181;-82
2023/06/17 06:51:27;;;;;;;27.27;21.63;;;;;;;-141.97;77.04;47653.63;5016003;28;20171;-82
2023/06/17 06:53:53;;;;;;;29.43;22.90;;;;;;;-141.97;78.48;47630.56;5015988;28;20174;-83
2023/06/17 06:56:18;;;;;;;30.33;22.40;;;;;;;-141.97;78.91;47672.84;5015159;28;20193;-84
2023/06/17 06:58:44;;;;;;;30.70;23.57;;;;;;;-141.97;80.20;47657.47;5016160;28;20636;-84
2023/06/17 07:01:09;;;;;;;28.50;22.97;;;;;;;-141.97;80.68;47594.03;5015766;28;20182;-84
2023/06/17 07:03:36;;;;;;;34.40;24.93;;;;;;;-141.97;82.00;47603.66;5013940;28;20292;-84
2023/06/17 07:06:02;;;;;;;32.60;25.03;;;;;;;-141.97;84.17;47817.00;5015887;28;20165;-84
2023/06/17 07:08:27;;;;;;;33.57;25.93;;;;;;;-141.97;85.12;47670.91;5015618;28;20222;-83
2023/06/17 07:10:53;;;;;;;42.10;31.20;;;;;;;-141.97;85.85;47667.06;5011858;28;20265;-84
2023/06/17 07:13:18;;;;;;;38.83;27.07;;;;;;;-141.97;84.81;47588.28;5016705;28;20665;-85
2023/06/17 07:15:45;;;;;;;32.43;24.83;;;;;;;-141.97;85.10;47826.63;5015808;28;20735;-83
2023/06/17 07:18:10;;;;;;;33.87;25.43;;;;;;;-141.97;83.77;47701.69;5015376;28;20166;-84
2023/06/17 07:20:37;;;;;;;36.17;25.10;;;;;;;-141.97;83.23;47884.28;5015712;28;20163;-83
2023/06/17 07:23:02;;;;;;;29.93;23.10;;;;;;;-141.97;82.80;47584.44;5015542;28;20170;-83
2023/06/17 07:25:28;;;;;;;30.03;23.30;;;;;;;-141.97;84.07;47709.38;5015288;28;20163;-83
2023/06/17 07:27:56;;;;;;;34.17;24.40;;;;;;;-141.97;85.79;47849.69;5014264;28;20170;-84
2023/06/17 07:30:22;;;;;;;35.77;26.20;;;;;;;-141.97;87.28;47815.09;5014071;28;20615;-83
2023/06/17 07:32:48;;;;;;;36.83;26.43;;;;;;;-141.97;87.67;47684.38;5014939;28;20253;-83
2023/06/17 07:35:13;;;;;;;39.50;28.07;;;;;;;-141.97;87.70;47840.06;5015483;28;20178;-83
2023/06/17 07:37:39;;;;;;;37.50;27.80;;;;;;;-141.97;87.21;47695.91;5016348;28;20246;-84
2023/06/17 07:40:06;;;;;;;42.43;31.33;;;;;;;-141.97;87.78;47542.16;5015699;28;20551;-84
2023/06/17 07:42:31;;;;;;;40.83;30.37;;;;;;;-141.97;86.45;47815.09;5015117;28;20512;-83
2023/06/17 07:44:56;;;;;;;39.73;27.73;;;;;;;-141.97;84.88;47755.50;5013536;28;20332;-84
2023/06/17 07:47:23;;;;;;;35.23;24.67;;;;;;;-141.97;84.29;47570.97;5015037;28;20170;-83
2023/06/17 07:49:48;;;;;;;39.53;27.27;;;;;;;-141.97;85.77;47732.44;5014965;28;20237;-83
2023/06/17 07:52:14;;;;;;;38.93;27.33;;;;;;;-141.97;84.70;47486.41;5014000;28;20171;-84
2023/06/17 07:54:41;;;;;;;40.23;28.40;;;;;;;-141.97;83.55;47840.06;5014428;28;20159;-84
2023/06/17 07:57:06;;;;;;;38.63;27.40;;;;;;;-141.97;83.10;47446.03;5014719;28;20167;-84
2023/06/17 07:59:31;;;;;;;34.57;25.20;;;;;;;-141.97;81.17;47624.78;5014235;28;20166;-83
2023/06/17 08:01:57;;;;;;;36.77;26.00;;;;;;;-141.97;82.21;47665.16;5014357;28;20171;-82
2023/06/17 08:04:22;;;;;;;35.10;26.30;;;;;;;-141.97;83.19;47546.00;5016848;28;20301;-83
2023/06/17 08:06:48;;;;;;;40.13;27.23;;;;;;;-141.97;83.05;47647.84;5013326;28;20163;-83
2023/06/17 08:09:13;;;;;;;40.27;27.03;;;;;;;-141.97;83.24;47657.47;5013224;28;20658;-83
2023/06/17 08:11:38;;;;;;;40.57;27.50;;;;;;;-141.97;83.16;47724.75;5014552;28;20159;-82
2023/06/17 08:14:04;;;;;;;36.17;27.13;;;;;;;-141.97;84.18;47753.56;5013039;28;20691;-83
2023/06/17 08:16:29;;;;;;;38.57;26.77;;;;;;;-141.97;84.23;47442.19;5014112;28;20165;-83
2023/06/17 08:18:55;;;;;;;37.93;26.00;;;;;;;-141.97;82.75;47653.63;5013673;28;20241;-83
2023/06/17 08:21:20;;;;;;;36.53;25.90;;;;;;;-141.97;83.82;47655.53;5013693;28;20615;-83
2023/06/17 08:23:46;;;;;;;35.77;25.73;;;;;;;-141.97;83.77;47563.28;5013966;28;20198;-83
2023/06/17 08:26:11;;;;;;;34.97;24.97;;;;;;;-141.97;84.92;47532.53;5013044;28;20193;-84
2023/06/17 08:28:38;;;;;;;38.13;26.67;;;;;;;-141.97;86.27;47569.06;5014062;28;20661;-84
2023/06/17 08:31:03;;;;;;;32.90;25.20;;;;;;;-141.97;85.76;47663.22;5014114;28;20205;-84
2023/06/17 08:33:29;;;;;;;31.67;23.77;;;;;;;-141.97;84.72;47619.03;5012344;28;20632;-84
2023/06/17 08:35:55;;;;;;;32.53;23.63;;;;;;;-141.97;84.63;47636.31;5014415;28;20293;-85
2023/06/17 08:38:20;;;;;;;32.60;22.87;;;;;;;-141.97;85.25;47634.41;5012622;28;20230;-84
2023/06/17 08:40:46;;;;;;;28.13;21.97;;;;;;;-141.97;84.98;47642.09;5013619;28;20174;-83
2023/06/17 08:43:18;;;;;;;33.73;21.77;;;;;;;-141.97;85.59;47805.47;5013806;28;20182;-84
2023/06/17 08:45:47;;;;;;;26.83;19.53;;;;;;;-141.97;84.94;47684.38;5014554;28;20265;-84
2023/06/17 08:48:13;;;;;;;26.47;19.20;;;;;;;-141.97;84.64;47792.03;5012395;28;20580;-83
2023/06/17 08:50:38;;;;;;;27.20;17.73;;;;;;;-141.97;84.02;47715.13;5013327;28;20238;-84
2023/06/17 08:53:05;;;;;;;26.13;19.03;;;;;;;-141.97;84.56;47688.22;5013689;28;20666;-84
2023/06/17 08:55:30;;;;;;;21.17;15.80;;;;;;;-141.97;83.35;47866.97;5014316;28;20249;-84
2023/06/17 08:57:56;;;;;;;20.20;14.83;;;;;;;-141.97;83.15;47838.16;5013264;28;20309;-83
2023/06/17 09:00:22;;;;;;;23.07;15.63;;;;;;;-141.97;83.83;47767.03;5014471;28;20638;-82
2023/06/17 09:02:48;;;;;;;17.57;12.83;;;;;;;-141.97;80.04;47655.53;5013617;28;20163;-82
2023/06/17 09:05:14;;;;;;;15.90;12.07;;;;;;;-141.97;78.99;47845.84;5013722;28;20194;-84
2023/06/17 09:07:40;;;;;;;17.67;13.70;;;;;;;-141.97;77.93;47851.59;5013229;28;20171;-84
2023/06/17 09:10:07;;;;;;;19.63;14.20;;;;;;;-141.97;76.03;47711.28;5013750;28;20185;-84
2023/06/17 09:12:39;;;;;;;22.07;14.87;;;;;;;-141.97;75.93;47718.97;5013734;28;20155;-82
2023/06/17 09:15:14;;;;;;;25.63;17.67;;;;;;;-141.97;76.00;47682.47;5008881;28;20606;-83
2023/06/17 09:17:42;;;;;;;25.70;18.03;;;;;;;-141.97;76.52;47788.19;4993854;28;20155;-83
2023/06/17 09:20:13;;;;;;;26.80;19.70;;;;;;;-141.97;77.90;47511.38;4992274;28;20179;-84
2023/06/17 09:22:43;;;;;;;28.03;20.23;;;;;;;-141.97;78.17;47546.00;4993205;28;20250;-84
2023/06/17 09:25:14;;;;;;;27.63;20.60;;;;;;;-141.97;77.15;47484.47;4992686;28;20279;-84
2023/06/17 09:27:49;;;;;;;28.60;19.40;;;;;;;-141.97;75.46;47793.94;4992914;28;20225;-83
2023/06/17 09:30:15;;;;;;;27.17;19.50;;;;;;;-141.97;74.17;47667.06;5003713;28;20173;-84
2023/06/17 09:32:42;;;;;;;26.43;21.17;;;;;;;-141.97;73.38;47442.19;5012698;28;20197;-83
2023/06/17 09:35:15;;;;;;;29.43;21.63;;;;;;;-141.97;73.21;47703.59;5013627;28;20175;-83
2023/06/17 09:37:48;;;;;;;29.50;22.20;;;;;;;-141.97;74.54;47555.59;5013042;28;20175;-83
2023/06/17 09:40:15;;;;;;;30.20;22.20;;;;;;;-141.97;73.19;47926.56;5012682;28;20273;-83
2023/06/17 09:42:43;;;;;;;32.50;23.23;;;;;;;-141.97;73.04;47653.63;5012855;28;20245;-82
2023/06/17 09:45:11;;;;;;;31.90;23.30;;;;;;;-141.97;72.00;47459.50;5011575;28;20277;-83
2023/06/17 09:47:37;;;;;;;32.17;23.60;;;;;;;-141.97;71.45;47640.16;5012812;28;20155;-83
2023/06/17 09:50:12;;;;;;;37.17;25.03;;;;;;;-141.97;71.38;47546.00;5012651;28;20163;-85
2023/06/17 09:52:38;;;;;;;34.13;24.10;;;;;;;-141.97;70.33;47838.16;5011961;28;20177;-84
2023/06/17 09:55:04;;;;;;;33.23;25.00;;;;;;;-141.97;70.78;47553.69;5012614;28;20163;-82
2023/06/17 09:57:31;;;;;;;31.93;23.53;;;;;;;-141.97;68.62;47772.78;5012031;28;20630;-83
2023/06/17 09:59:58;;;;;;;30.53;23.13;;;;;;;-141.97;70.19;47547.91;5013111;28;20166;-84
2023/06/17 10:02:24;;;;;;;31.87;22.17;;;;;;;-141.97;70.01;47620.94;5012861;28;20237;-84
2023/06/17 10:04:49;;;;;;;31.87;23.43;;;;;;;-141.97;68.61;47346.09;5012322;28;20321;-83
2023/06/17 10:07:17;;;;;;;54.63;40.27;;;;;;;-141.97;66.88;47559.44;5007752;28;20585;-86
2023/06/17 10:09:42;;;;;;;33.87;24.20;;;;;;;-141.97;68.70;47530.59;4991201;28;20253;-83
2023/06/17 10:12:10;;;;;;;28.40;20.20;;;;;;;-141.97;68.88;47590.19;4993175;28;20160;-83
2023/06/17 10:14:36;;;;;;;30.53;21.07;;;;;;;-141.97;67.52;47357.63;4991855;28;20178;-83
2023/06/17 10:17:05;;;;;;;43.77;33.67;;;;;;;-141.97;66.66;47613.25;5026323;28;20186;-83
2023/06/17 10:19:34;;;;;;;28.03;21.57;;;;;;;-141.97;66.31;47559.44;5012657;28;20158;-82
2023/06/17 10:22:02;;;;;;;19.93;16.30;;;;;;;-141.97;64.45;47709.38;5012537;28;20163;-83
2023/06/17 10:24:28;;;;;;;16.80;14.10;;;;;;;-141.97;63.72;47642.09;5012909;28;20194;-84
2023/06/17 10:26:53;;;;;;;19.13;14.47;;;;;;;-141.97;64.14;47842.00;5012961;28;20163;-84
2023/06/17 10:29:20;;;;;;;18.67;14.13;;;;;;;-141.97;64.62;47461.41;5013239;28;20304;-82
2023/06/17 10:31:45;;;;;;;20.20;14.20;;;;;;;-141.97;63.67;47649.78;5013049;28;20163;-83
2023/06/17 10:34:21;;;;;;;17.87;14.37;;;;;;;-141.97;64.08;47611.34;5013038;28;20635;-83
2023/06/17 10:36:51;;;;;;;17.97;14.23;;;;;;;-141.97;65.12;47626.72;5011449;28;20229;-83
2023/06/17 10:39:17;;;;;;;17.47;13.97;;;;;;;-141.97;65.06;47642.09;5013045;28;20178;-83
2023/06/17 10:41:44;;;;;;;19.92;14.52;;;;;;;-141.97;65.98;47649.78;5012650;28;20187;-82
2023/06/17 10:44:39;;;;;;;20.57;15.83;;;;;;;-141.97;67.11;47657.47;5012063;28;20191;-84
2023/06/17 10:47:17;;;;;;;22.20;15.10;;;;;;;-141.97;68.04;47490.25;5012326;28;20163;-83
2023/06/17 10:49:43;;;;;;;27.63;19.80;;;;;;;-141.97;71.68;47628.63;5012868;28;20605;-84
2023/06/17 10:52:13;;;;;;;21.17;16.87;;;;;;;-141.97;76.51;47682.47;5013640;28;20170;-84
2023/06/17 10:54:54;;;;;;;24.03;17.53;;;;;;;-141.97;75.34;47653.63;5011711;28;20174;-84
2023/06/17 10:57:30;;;;;;;22.83;16.70;;;;;;;-141.97;77.63;47667.06;5013392;28;20170;-82
2023/06/17 10:59:59;;;;;;;21.10;16.43;;;;;;;-141.97;79.94;47670.91;5013844;28;20245;-83